sensor_id;sensor_type;location;lat;lon;timestamp;P1;durP1;ratioP1;P2;durP2;ratioP2
50417;SDS011;36346;48.280;14.292;2023-02-28T00:01:30;18.56;;;18.44;;
50417;SDS011;36346;48.280;14.292;2023-02-28T00:03:58;20.56;;;20.27;;
50417;SDS011;36346;48.280;14.292;2023-02-28T00:06:27;20.08;;;20.00;;
50417;SDS011;36346;48.280;14.292;2023-02-28T00:08:55;18.11;;;17.92;;
50417;SDS011;36346;48.280;14.292;2023-02-28T00:11:23;17.09;;;17.08;;
50417;SDS011;36346;48.280;14.292;2023-02-28T00:13:51;17.22;;;17.17;;
50417;SDS011;36346;48.280;14.292;2023-02-28T00:16:20;18.14;;;18.13;;
50417;SDS011;36346;48.280;14.292;2023-02-28T00:18:49;17.80;;;17.80;;
50417;SDS011;36346;48.280;14.292;2023-02-28T00:21:18;19.99;;;19.85;;
50417;SDS011;36346;48.280;14.292;2023-02-28T00:23:47;19.67;;;19.53;;
50417;SDS011;36346;48.280;14.292;2023-02-28T00:26:16;20.41;;;20.18;;
50417;SDS011;36346;48.280;14.292;2023-02-28T00:28:46;20.11;;;19.92;;
50417;SDS011;36346;48.280;14.292;2023-02-28T00:31:14;19.98;;;19.73;;
50417;SDS011;36346;48.280;14.292;2023-02-28T00:33:42;21.87;;;21.78;;
50417;SDS011;36346;48.280;14.292;2023-02-28T00:36:10;22.43;;;22.08;;
50417;SDS011;36346;48.280;14.292;2023-02-28T00:38:39;21.92;;;21.74;;
50417;SDS011;36346;48.280;14.292;2023-02-28T00:41:08;21.12;;;21.06;;
50417;SDS011;36346;48.280;14.292;2023-02-28T00:43:37;22.46;;;22.25;;
50417;SDS011;36346;48.280;14.292;2023-02-28T00:46:06;23.01;;;22.77;;
50417;SDS011;36346;48.280;14.292;2023-02-28T00:48:34;23.20;;;22.84;;
50417;SDS011;36346;48.280;14.292;2023-02-28T00:51:03;22.97;;;22.65;;
50417;SDS011;36346;48.280;14.292;2023-02-28T00:53:31;22.69;;;22.36;;
50417;SDS011;36346;48.280;14.292;2023-02-28T00:56:00;22.50;;;22.26;;
50417;SDS011;36346;48.280;14.292;2023-02-28T00:58:28;21.78;;;21.50;;
50417;SDS011;36346;48.280;14.292;2023-02-28T01:00:57;19.66;;;19.61;;
50417;SDS011;36346;48.280;14.292;2023-02-28T01:03:25;21.10;;;20.96;;
50417;SDS011;36346;48.280;14.292;2023-02-28T01:05:53;21.78;;;21.60;;
50417;SDS011;36346;48.280;14.292;2023-02-28T01:08:21;20.24;;;19.86;;
50417;SDS011;36346;48.280;14.292;2023-02-28T01:10:50;20.50;;;20.32;;
50417;SDS011;36346;48.280;14.292;2023-02-28T01:13:18;19.40;;;19.29;;
50417;SDS011;36346;48.280;14.292;2023-02-28T01:15:51;20.10;;;19.88;;
50417;SDS011;36346;48.280;14.292;2023-02-28T01:18:21;18.99;;;18.62;;
50417;SDS011;36346;48.280;14.292;2023-02-28T01:20:50;17.57;;;17.33;;
50417;SDS011;36346;48.280;14.292;2023-02-28T01:23:20;17.37;;;17.19;;
50417;SDS011;36346;48.280;14.292;2023-02-28T01:25:50;18.15;;;18.12;;
50417;SDS011;36346;48.280;14.292;2023-02-28T01:28:18;17.58;;;17.47;;
50417;SDS011;36346;48.280;14.292;2023-02-28T01:30:50;17.18;;;17.13;;
50417;SDS011;36346;48.280;14.292;2023-02-28T01:33:18;17.47;;;17.30;;
50417;SDS011;36346;48.280;14.292;2023-02-28T01:35:46;16.85;;;16.75;;
50417;SDS011;36346;48.280;14.292;2023-02-28T01:38:14;17.21;;;17.02;;
50417;SDS011;36346;48.280;14.292;2023-02-28T01:40:50;17.48;;;17.34;;
50417;SDS011;36346;48.280;14.292;2023-02-28T01:43:26;18.53;;;18.43;;
50417;SDS011;36346;48.280;14.292;2023-02-28T01:45:55;18.26;;;18.01;;
50417;SDS011;36346;48.280;14.292;2023-02-28T01:48:30;17.26;;;17.18;;
50417;SDS011;36346;48.280;14.292;2023-02-28T01:51:02;17.95;;;17.75;;
50417;SDS011;36346;48.280;14.292;2023-02-28T01:53:37;17.95;;;17.70;;
50417;SDS011;36346;48.280;14.292;2023-02-28T01:56:12;17.38;;;17.22;;
50417;SDS011;36346;48.280;14.292;2023-02-28T01:58:49;17.45;;;17.21;;
50417;SDS011;36346;48.280;14.292;2023-02-28T02:01:20;17.79;;;17.59;;
50417;SDS011;36346;48.280;14.292;2023-02-28T02:03:53;17.24;;;17.15;;
50417;SDS011;36346;48.280;14.292;2023-02-28T02:06:26;17.10;;;17.07;;
50417;SDS011;36346;48.280;14.292;2023-02-28T02:08:58;17.51;;;17.39;;
50417;SDS011;36346;48.280;14.292;2023-02-28T02:11:26;17.95;;;17.76;;
50417;SDS011;36346;48.280;14.292;2023-02-28T02:19:26;18.95;;;18.75;;
50417;SDS011;36346;48.280;14.292;2023-02-28T02:40:59;22.99;;;22.59;;
50417;SDS011;36346;48.280;14.292;2023-02-28T02:43:48;21.94;;;21.66;;
50417;SDS011;36346;48.280;14.292;2023-02-28T02:46:37;20.02;;;19.78;;
50417;SDS011;36346;48.280;14.292;2023-02-28T02:49:13;21.27;;;20.99;;
50417;SDS011;36346;48.280;14.292;2023-02-28T02:51:47;21.01;;;20.58;;
50417;SDS011;36346;48.280;14.292;2023-02-28T02:54:24;21.17;;;21.00;;
50417;SDS011;36346;48.280;14.292;2023-02-28T02:57:01;21.11;;;20.85;;
50417;SDS011;36346;48.280;14.292;2023-02-28T02:59:33;21.15;;;20.98;;
50417;SDS011;36346;48.280;14.292;2023-02-28T03:02:04;20.83;;;20.53;;
50417;SDS011;36346;48.280;14.292;2023-02-28T03:04:40;20.51;;;20.30;;
50417;SDS011;36346;48.280;14.292;2023-02-28T03:07:12;19.06;;;19.00;;
50417;SDS011;36346;48.280;14.292;2023-02-28T03:09:49;18.32;;;18.06;;
50417;SDS011;36346;48.280;14.292;2023-02-28T03:12:19;18.26;;;18.02;;
50417;SDS011;36346;48.280;14.292;2023-02-28T03:17:52;18.07;;;17.79;;
50417;SDS011;36346;48.280;14.292;2023-02-28T03:20:31;17.51;;;17.30;;
50417;SDS011;36346;48.280;14.292;2023-02-28T03:23:16;19.04;;;18.70;;
50417;SDS011;36346;48.280;14.292;2023-02-28T03:31:17;17.84;;;17.51;;
50417;SDS011;36346;48.280;14.292;2023-02-28T03:34:10;17.87;;;17.52;;
50417;SDS011;36346;48.280;14.292;2023-02-28T03:36:44;17.88;;;17.69;;
50417;SDS011;36346;48.280;14.292;2023-02-28T03:39:24;18.82;;;18.57;;
50417;SDS011;36346;48.280;14.292;2023-02-28T03:42:03;20.16;;;19.96;;
50417;SDS011;36346;48.280;14.292;2023-02-28T03:44:38;20.89;;;20.76;;
50417;SDS011;36346;48.280;14.292;2023-02-28T03:47:12;19.68;;;19.42;;
50417;SDS011;36346;48.280;14.292;2023-02-28T03:52:15;18.53;;;18.24;;
50417;SDS011;36346;48.280;14.292;2023-02-28T03:54:48;17.68;;;17.39;;
50417;SDS011;36346;48.280;14.292;2023-02-28T04:00:08;17.23;;;16.98;;
50417;SDS011;36346;48.280;14.292;2023-02-28T04:02:39;17.30;;;17.10;;
50417;SDS011;36346;48.280;14.292;2023-02-28T04:05:07;17.32;;;17.07;;
50417;SDS011;36346;48.280;14.292;2023-02-28T04:07:35;17.59;;;17.33;;
50417;SDS011;36346;48.280;14.292;2023-02-28T04:10:04;18.21;;;18.02;;
50417;SDS011;36346;48.280;14.292;2023-02-28T04:12:32;18.02;;;17.88;;
50417;SDS011;36346;48.280;14.292;2023-02-28T04:15:00;18.54;;;18.28;;
50417;SDS011;36346;48.280;14.292;2023-02-28T04:17:28;19.47;;;19.23;;
50417;SDS011;36346;48.280;14.292;2023-02-28T04:19:56;19.99;;;19.64;;
50417;SDS011;36346;48.280;14.292;2023-02-28T04:22:24;20.65;;;20.26;;
50417;SDS011;36346;48.280;14.292;2023-02-28T04:24:55;21.09;;;20.89;;
50417;SDS011;36346;48.280;14.292;2023-02-28T04:27:23;21.60;;;21.21;;
50417;SDS011;36346;48.280;14.292;2023-02-28T04:29:51;21.35;;;21.17;;
50417;SDS011;36346;48.280;14.292;2023-02-28T04:32:19;19.33;;;19.24;;
50417;SDS011;36346;48.280;14.292;2023-02-28T04:34:47;18.82;;;18.74;;
50417;SDS011;36346;48.280;14.292;2023-02-28T04:37:15;18.46;;;18.19;;
50417;SDS011;36346;48.280;14.292;2023-02-28T04:39:42;18.82;;;18.60;;
50417;SDS011;36346;48.280;14.292;2023-02-28T04:42:11;20.62;;;20.47;;
50417;SDS011;36346;48.280;14.292;2023-02-28T04:44:40;20.92;;;20.66;;
50417;SDS011;36346;48.280;14.292;2023-02-28T04:47:08;20.88;;;20.67;;
50417;SDS011;36346;48.280;14.292;2023-02-28T04:49:36;19.31;;;19.02;;
50417;SDS011;36346;48.280;14.292;2023-02-28T04:52:04;19.39;;;19.05;;
50417;SDS011;36346;48.280;14.292;2023-02-28T04:54:32;18.20;;;17.99;;
50417;SDS011;36346;48.280;14.292;2023-02-28T04:57:00;19.09;;;18.69;;
50417;SDS011;36346;48.280;14.292;2023-02-28T04:59:29;19.33;;;18.99;;
50417;SDS011;36346;48.280;14.292;2023-02-28T05:01:57;19.65;;;19.39;;
50417;SDS011;36346;48.280;14.292;2023-02-28T05:04:25;19.95;;;19.60;;
50417;SDS011;36346;48.280;14.292;2023-02-28T05:06:53;20.75;;;20.37;;
50417;SDS011;36346;48.280;14.292;2023-02-28T05:09:21;17.97;;;17.74;;
50417;SDS011;36346;48.280;14.292;2023-02-28T05:11:49;17.42;;;17.34;;
50417;SDS011;36346;48.280;14.292;2023-02-28T05:14:16;18.47;;;18.28;;
50417;SDS011;36346;48.280;14.292;2023-02-28T05:16:44;17.88;;;17.67;;
50417;SDS011;36346;48.280;14.292;2023-02-28T05:19:12;17.62;;;17.47;;
50417;SDS011;36346;48.280;14.292;2023-02-28T05:21:41;19.39;;;19.13;;
50417;SDS011;36346;48.280;14.292;2023-02-28T05:24:18;19.30;;;19.03;;
50417;SDS011;36346;48.280;14.292;2023-02-28T05:26:53;19.04;;;18.83;;
50417;SDS011;36346;48.280;14.292;2023-02-28T05:29:22;19.08;;;18.92;;
50417;SDS011;36346;48.280;14.292;2023-02-28T05:31:50;17.73;;;17.46;;
50417;SDS011;36346;48.280;14.292;2023-02-28T05:34:18;17.52;;;17.29;;
50417;SDS011;36346;48.280;14.292;2023-02-28T05:36:46;17.56;;;17.32;;
50417;SDS011;36346;48.280;14.292;2023-02-28T05:39:14;17.58;;;17.31;;
50417;SDS011;36346;48.280;14.292;2023-02-28T05:41:42;17.97;;;17.79;;
50417;SDS011;36346;48.280;14.292;2023-02-28T05:44:11;17.41;;;17.14;;
50417;SDS011;36346;48.280;14.292;2023-02-28T05:46:39;16.67;;;16.58;;
50417;SDS011;36346;48.280;14.292;2023-02-28T05:49:07;17.22;;;17.11;;
50417;SDS011;36346;48.280;14.292;2023-02-28T05:51:35;17.38;;;17.21;;
50417;SDS011;36346;48.280;14.292;2023-02-28T05:54:07;17.24;;;17.06;;
50417;SDS011;36346;48.280;14.292;2023-02-28T05:56:35;16.62;;;16.48;;
50417;SDS011;36346;48.280;14.292;2023-02-28T05:59:06;16.56;;;16.37;;
50417;SDS011;36346;48.280;14.292;2023-02-28T06:01:35;17.54;;;17.38;;
50417;SDS011;36346;48.280;14.292;2023-02-28T06:04:06;17.70;;;17.57;;
50417;SDS011;36346;48.280;14.292;2023-02-28T06:06:49;17.28;;;17.20;;
50417;SDS011;36346;48.280;14.292;2023-02-28T06:09:17;17.36;;;17.16;;
50417;SDS011;36346;48.280;14.292;2023-02-28T06:11:45;17.00;;;16.84;;
50417;SDS011;36346;48.280;14.292;2023-02-28T06:14:17;16.64;;;16.48;;
50417;SDS011;36346;48.280;14.292;2023-02-28T06:16:46;16.18;;;16.08;;
50417;SDS011;36346;48.280;14.292;2023-02-28T06:19:15;16.14;;;15.96;;
50417;SDS011;36346;48.280;14.292;2023-02-28T06:21:43;16.31;;;16.11;;
50417;SDS011;36346;48.280;14.292;2023-02-28T06:24:11;16.04;;;15.91;;
50417;SDS011;36346;48.280;14.292;2023-02-28T06:26:39;15.75;;;15.63;;
50417;SDS011;36346;48.280;14.292;2023-02-28T06:29:07;16.26;;;16.08;;
50417;SDS011;36346;48.280;14.292;2023-02-28T06:31:36;16.66;;;16.53;;
50417;SDS011;36346;48.280;14.292;2023-02-28T06:34:04;17.13;;;17.01;;
50417;SDS011;36346;48.280;14.292;2023-02-28T06:36:32;16.92;;;16.80;;
50417;SDS011;36346;48.280;14.292;2023-02-28T06:39:00;16.46;;;16.29;;
50417;SDS011;36346;48.280;14.292;2023-02-28T06:41:28;16.76;;;16.53;;
50417;SDS011;36346;48.280;14.292;2023-02-28T06:44:12;16.60;;;16.28;;
50417;SDS011;36346;48.280;14.292;2023-02-28T06:46:41;16.52;;;16.30;;
50417;SDS011;36346;48.280;14.292;2023-02-28T06:49:11;16.67;;;16.51;;
50417;SDS011;36346;48.280;14.292;2023-02-28T06:51:40;16.29;;;16.16;;
50417;SDS011;36346;48.280;14.292;2023-02-28T06:54:12;16.66;;;16.35;;
50417;SDS011;36346;48.280;14.292;2023-02-28T06:56:40;16.24;;;16.06;;
50417;SDS011;36346;48.280;14.292;2023-02-28T06:59:08;16.90;;;16.67;;
50417;SDS011;36346;48.280;14.292;2023-02-28T07:01:36;16.83;;;16.70;;
50417;SDS011;36346;48.280;14.292;2023-02-28T07:04:05;16.72;;;16.64;;
50417;SDS011;36346;48.280;14.292;2023-02-28T07:06:33;16.66;;;16.47;;
50417;SDS011;36346;48.280;14.292;2023-02-28T07:09:01;17.27;;;17.11;;
50417;SDS011;36346;48.280;14.292;2023-02-28T07:11:31;17.19;;;17.01;;
50417;SDS011;36346;48.280;14.292;2023-02-28T07:13:59;20.19;;;19.89;;
50417;SDS011;36346;48.280;14.292;2023-02-28T07:16:27;17.72;;;17.51;;
50417;SDS011;36346;48.280;14.292;2023-02-28T07:18:55;16.69;;;16.59;;
50417;SDS011;36346;48.280;14.292;2023-02-28T07:21:23;18.01;;;17.87;;
50417;SDS011;36346;48.280;14.292;2023-02-28T07:23:51;17.56;;;17.39;;
50417;SDS011;36346;48.280;14.292;2023-02-28T07:26:19;17.16;;;16.97;;
50417;SDS011;36346;48.280;14.292;2023-02-28T07:28:48;17.85;;;17.73;;
50417;SDS011;36346;48.280;14.292;2023-02-28T07:31:17;18.20;;;17.96;;
50417;SDS011;36346;48.280;14.292;2023-02-28T07:33:46;17.07;;;16.78;;
50417;SDS011;36346;48.280;14.292;2023-02-28T07:36:14;18.54;;;18.28;;
50417;SDS011;36346;48.280;14.292;2023-02-28T07:38:46;19.97;;;19.64;;
50417;SDS011;36346;48.280;14.292;2023-02-28T07:41:17;19.18;;;18.92;;
50417;SDS011;36346;48.280;14.292;2023-02-28T07:43:47;18.72;;;18.49;;
50417;SDS011;36346;48.280;14.292;2023-02-28T07:46:15;18.66;;;18.58;;
50417;SDS011;36346;48.280;14.292;2023-02-28T07:48:44;19.18;;;18.97;;
50417;SDS011;36346;48.280;14.292;2023-02-28T07:51:12;18.67;;;18.49;;
50417;SDS011;36346;48.280;14.292;2023-02-28T07:53:40;18.33;;;18.19;;
50417;SDS011;36346;48.280;14.292;2023-02-28T07:56:08;18.15;;;17.96;;
50417;SDS011;36346;48.280;14.292;2023-02-28T07:58:37;17.23;;;17.07;;
50417;SDS011;36346;48.280;14.292;2023-02-28T08:01:06;18.96;;;18.78;;
50417;SDS011;36346;48.280;14.292;2023-02-28T08:03:35;22.23;;;21.98;;
50417;SDS011;36346;48.280;14.292;2023-02-28T08:06:04;20.14;;;19.92;;
50417;SDS011;36346;48.280;14.292;2023-02-28T08:08:33;19.68;;;19.46;;
50417;SDS011;36346;48.280;14.292;2023-02-28T08:11:01;19.23;;;18.97;;
50417;SDS011;36346;48.280;14.292;2023-02-28T08:13:30;18.74;;;18.41;;
50417;SDS011;36346;48.280;14.292;2023-02-28T08:16:00;19.41;;;19.15;;
50417;SDS011;36346;48.280;14.292;2023-02-28T08:18:29;21.78;;;21.54;;
50417;SDS011;36346;48.280;14.292;2023-02-28T08:21:05;22.17;;;21.95;;
50417;SDS011;36346;48.280;14.292;2023-02-28T08:23:34;20.28;;;20.14;;
50417;SDS011;36346;48.280;14.292;2023-02-28T08:26:03;18.72;;;18.54;;
50417;SDS011;36346;48.280;14.292;2023-02-28T08:28:31;20.76;;;20.47;;
50417;SDS011;36346;48.280;14.292;2023-02-28T08:30:59;18.85;;;18.66;;
50417;SDS011;36346;48.280;14.292;2023-02-28T08:33:27;18.25;;;18.12;;
50417;SDS011;36346;48.280;14.292;2023-02-28T08:35:55;21.45;;;21.15;;
50417;SDS011;36346;48.280;14.292;2023-02-28T08:38:24;21.01;;;20.76;;
50417;SDS011;36346;48.280;14.292;2023-02-28T08:41:02;21.32;;;20.96;;
50417;SDS011;36346;48.280;14.292;2023-02-28T08:43:34;19.70;;;19.45;;
50417;SDS011;36346;48.280;14.292;2023-02-28T08:46:03;18.33;;;18.15;;
50417;SDS011;36346;48.280;14.292;2023-02-28T08:48:33;18.61;;;18.32;;
50417;SDS011;36346;48.280;14.292;2023-02-28T08:51:03;19.84;;;19.56;;
50417;SDS011;36346;48.280;14.292;2023-02-28T08:53:37;20.26;;;20.03;;
50417;SDS011;36346;48.280;14.292;2023-02-28T08:56:06;19.22;;;19.01;;
50417;SDS011;36346;48.280;14.292;2023-02-28T08:58:45;19.55;;;19.35;;
50417;SDS011;36346;48.280;14.292;2023-02-28T09:01:24;19.76;;;19.54;;
50417;SDS011;36346;48.280;14.292;2023-02-28T09:03:55;18.73;;;18.51;;
50417;SDS011;36346;48.280;14.292;2023-02-28T09:06:24;18.91;;;18.73;;
50417;SDS011;36346;48.280;14.292;2023-02-28T09:08:57;18.37;;;18.32;;
50417;SDS011;36346;48.280;14.292;2023-02-28T09:11:27;18.84;;;18.69;;
50417;SDS011;36346;48.280;14.292;2023-02-28T09:13:55;20.62;;;20.34;;
50417;SDS011;36346;48.280;14.292;2023-02-28T09:16:23;21.63;;;21.34;;
50417;SDS011;36346;48.280;14.292;2023-02-28T09:18:52;19.50;;;19.29;;
50417;SDS011;36346;48.280;14.292;2023-02-28T09:21:19;19.04;;;18.72;;
50417;SDS011;36346;48.280;14.292;2023-02-28T09:23:48;18.61;;;18.37;;
50417;SDS011;36346;48.280;14.292;2023-02-28T09:26:18;18.83;;;18.58;;
50417;SDS011;36346;48.280;14.292;2023-02-28T09:28:51;19.81;;;19.62;;
50417;SDS011;36346;48.280;14.292;2023-02-28T09:31:21;18.05;;;17.95;;
50417;SDS011;36346;48.280;14.292;2023-02-28T09:33:52;17.43;;;17.26;;
50417;SDS011;36346;48.280;14.292;2023-02-28T09:36:22;18.98;;;18.79;;
50417;SDS011;36346;48.280;14.292;2023-02-28T09:39:00;18.90;;;18.75;;
50417;SDS011;36346;48.280;14.292;2023-02-28T09:41:29;18.31;;;18.06;;
50417;SDS011;36346;48.280;14.292;2023-02-28T09:44:07;18.17;;;17.91;;
50417;SDS011;36346;48.280;14.292;2023-02-28T09:46:44;17.73;;;17.59;;
50417;SDS011;36346;48.280;14.292;2023-02-28T09:49:17;17.55;;;17.50;;
50417;SDS011;36346;48.280;14.292;2023-02-28T09:52:01;18.27;;;18.11;;
50417;SDS011;36346;48.280;14.292;2023-02-28T09:54:31;18.67;;;18.41;;
50417;SDS011;36346;48.280;14.292;2023-02-28T09:57:07;17.97;;;17.72;;
50417;SDS011;36346;48.280;14.292;2023-02-28T10:05:54;17.36;;;17.25;;
50417;SDS011;36346;48.280;14.292;2023-02-28T10:08:38;16.91;;;16.74;;
50417;SDS011;36346;48.280;14.292;2023-02-28T10:11:16;17.91;;;17.71;;
50417;SDS011;36346;48.280;14.292;2023-02-28T10:21:50;16.37;;;16.34;;
50417;SDS011;36346;48.280;14.292;2023-02-28T10:27:15;16.44;;;16.36;;
50417;SDS011;36346;48.280;14.292;2023-02-28T10:29:57;18.27;;;18.21;;
50417;SDS011;36346;48.280;14.292;2023-02-28T10:32:29;18.60;;;18.47;;
50417;SDS011;36346;48.280;14.292;2023-02-28T10:37:37;16.87;;;16.78;;
50417;SDS011;36346;48.280;14.292;2023-02-28T10:40:29;16.26;;;16.22;;
50417;SDS011;36346;48.280;14.292;2023-02-28T10:43:17;16.25;;;16.18;;
50417;SDS011;36346;48.280;14.292;2023-02-28T10:48:33;15.69;;;15.56;;
50417;SDS011;36346;48.280;14.292;2023-02-28T10:51:35;15.60;;;15.46;;
50417;SDS011;36346;48.280;14.292;2023-02-28T10:54:05;16.94;;;16.84;;
50417;SDS011;36346;48.280;14.292;2023-02-28T10:56:43;16.84;;;16.70;;
50417;SDS011;36346;48.280;14.292;2023-02-28T11:01:43;15.11;;;15.00;;
50417;SDS011;36346;48.280;14.292;2023-02-28T11:04:16;15.16;;;14.94;;
50417;SDS011;36346;48.280;14.292;2023-02-28T11:07:00;15.04;;;14.98;;
50417;SDS011;36346;48.280;14.292;2023-02-28T11:09:36;15.10;;;15.04;;
50417;SDS011;36346;48.280;14.292;2023-02-28T11:12:07;14.52;;;14.50;;
50417;SDS011;36346;48.280;14.292;2023-02-28T11:14:51;14.18;;;14.13;;
50417;SDS011;36346;48.280;14.292;2023-02-28T11:17:23;13.78;;;13.72;;
50417;SDS011;36346;48.280;14.292;2023-02-28T11:19:57;13.83;;;13.81;;
50417;SDS011;36346;48.280;14.292;2023-02-28T11:22:31;14.70;;;14.65;;
50417;SDS011;36346;48.280;14.292;2023-02-28T11:25:13;14.89;;;14.85;;
50417;SDS011;36346;48.280;14.292;2023-02-28T11:27:52;14.68;;;14.42;;
50417;SDS011;36346;48.280;14.292;2023-02-28T11:30:23;14.21;;;14.14;;
50417;SDS011;36346;48.280;14.292;2023-02-28T11:32:53;13.84;;;13.84;;
50417;SDS011;36346;48.280;14.292;2023-02-28T11:35:26;13.61;;;13.59;;
50417;SDS011;36346;48.280;14.292;2023-02-28T11:38:11;13.88;;;13.88;;
50417;SDS011;36346;48.280;14.292;2023-02-28T11:43:27;13.88;;;13.85;;
50417;SDS011;36346;48.280;14.292;2023-02-28T11:48:46;13.58;;;13.52;;
50417;SDS011;36346;48.280;14.292;2023-02-28T12:00:15;13.88;;;13.88;;
50417;SDS011;36346;48.280;14.292;2023-02-28T12:11:02;15.13;;;15.04;;
50417;SDS011;36346;48.280;14.292;2023-02-28T12:27:45;14.81;;;14.80;;
50417;SDS011;36346;48.280;14.292;2023-02-28T12:30:17;14.83;;;14.72;;
50417;SDS011;36346;48.280;14.292;2023-02-28T12:32:50;15.72;;;15.58;;
50417;SDS011;36346;48.280;14.292;2023-02-28T12:35:29;15.44;;;15.44;;
50417;SDS011;36346;48.280;14.292;2023-02-28T12:38:06;15.46;;;15.34;;
50417;SDS011;36346;48.280;14.292;2023-02-28T12:40:48;14.98;;;14.95;;
50417;SDS011;36346;48.280;14.292;2023-02-28T12:43:42;15.09;;;15.05;;
50417;SDS011;36346;48.280;14.292;2023-02-28T12:46:20;15.23;;;15.15;;
50417;SDS011;36346;48.280;14.292;2023-02-28T12:48:55;14.86;;;14.79;;
50417;SDS011;36346;48.280;14.292;2023-02-28T12:51:25;14.63;;;14.50;;
50417;SDS011;36346;48.280;14.292;2023-02-28T12:54:01;14.28;;;14.12;;
50417;SDS011;36346;48.280;14.292;2023-02-28T12:59:22;15.09;;;15.01;;
50417;SDS011;36346;48.280;14.292;2023-02-28T13:07:56;15.32;;;15.30;;
50417;SDS011;36346;48.280;14.292;2023-02-28T13:10:50;15.82;;;15.81;;
50417;SDS011;36346;48.280;14.292;2023-02-28T13:13:23;15.11;;;15.03;;
50417;SDS011;36346;48.280;14.292;2023-02-28T13:16:01;18.91;;;18.63;;
50417;SDS011;36346;48.280;14.292;2023-02-28T13:18:36;15.70;;;15.64;;
50417;SDS011;36346;48.280;14.292;2023-02-28T13:21:28;16.60;;;16.38;;
50417;SDS011;36346;48.280;14.292;2023-02-28T13:24:02;15.85;;;15.85;;
50417;SDS011;36346;48.280;14.292;2023-02-28T13:34:42;15.62;;;15.61;;
50417;SDS011;36346;48.280;14.292;2023-02-28T13:39:46;15.33;;;15.33;;
50417;SDS011;36346;48.280;14.292;2023-02-28T14:07:09;16.59;;;16.40;;
50417;SDS011;36346;48.280;14.292;2023-02-28T14:09:48;16.18;;;16.17;;
50417;SDS011;36346;48.280;14.292;2023-02-28T14:15:41;15.26;;;15.25;;
50417;SDS011;36346;48.280;14.292;2023-02-28T14:18:35;15.38;;;15.37;;
50417;SDS011;36346;48.280;14.292;2023-02-28T14:22:12;15.19;;;15.18;;
50417;SDS011;36346;48.280;14.292;2023-02-28T14:24:16;15.11;;;15.10;;
50417;SDS011;36346;48.280;14.292;2023-02-28T14:29:43;15.56;;;15.40;;
50417;SDS011;36346;48.280;14.292;2023-02-28T14:35:29;14.14;;;14.11;;
50417;SDS011;36346;48.280;14.292;2023-02-28T14:38:25;14.65;;;14.45;;
50417;SDS011;36346;48.280;14.292;2023-02-28T14:40:58;15.33;;;15.20;;
50417;SDS011;36346;48.280;14.292;2023-02-28T14:43:32;16.65;;;16.56;;
50417;SDS011;36346;48.280;14.292;2023-02-28T14:46:01;17.21;;;17.01;;
50417;SDS011;36346;48.280;14.292;2023-02-28T14:48:30;17.79;;;17.74;;
50417;SDS011;36346;48.280;14.292;2023-02-28T14:50:59;17.99;;;17.84;;
50417;SDS011;36346;48.280;14.292;2023-02-28T14:53:30;17.95;;;17.85;;
50417;SDS011;36346;48.280;14.292;2023-02-28T14:56:03;18.61;;;18.32;;
50417;SDS011;36346;48.280;14.292;2023-02-28T14:58:32;18.13;;;17.91;;
50417;SDS011;36346;48.280;14.292;2023-02-28T15:01:02;17.92;;;17.88;;
50417;SDS011;36346;48.280;14.292;2023-02-28T15:06:01;18.24;;;18.11;;
50417;SDS011;36346;48.280;14.292;2023-02-28T15:08:31;19.73;;;19.52;;
50417;SDS011;36346;48.280;14.292;2023-02-28T15:13:36;19.72;;;19.33;;
50417;SDS011;36346;48.280;14.292;2023-02-28T15:16:09;20.29;;;19.99;;
50417;SDS011;36346;48.280;14.292;2023-02-28T15:21:23;20.47;;;20.36;;
50417;SDS011;36346;48.280;14.292;2023-02-28T15:23:58;21.32;;;21.07;;
50417;SDS011;36346;48.280;14.292;2023-02-28T15:26:55;21.85;;;21.50;;
50417;SDS011;36346;48.280;14.292;2023-02-28T15:29:27;22.40;;;22.38;;
50417;SDS011;36346;48.280;14.292;2023-02-28T15:32:00;22.41;;;22.25;;
50417;SDS011;36346;48.280;14.292;2023-02-28T15:34:38;23.57;;;23.09;;
50417;SDS011;36346;48.280;14.292;2023-02-28T15:40:11;24.35;;;23.99;;
50417;SDS011;36346;48.280;14.292;2023-02-28T15:42:43;23.87;;;23.46;;
50417;SDS011;36346;48.280;14.292;2023-02-28T15:45:27;23.54;;;23.23;;
50417;SDS011;36346;48.280;14.292;2023-02-28T15:47:57;22.98;;;22.80;;
50417;SDS011;36346;48.280;14.292;2023-02-28T15:50:35;23.03;;;23.00;;
50417;SDS011;36346;48.280;14.292;2023-02-28T15:53:03;22.73;;;22.37;;
50417;SDS011;36346;48.280;14.292;2023-02-28T15:55:31;22.86;;;22.73;;
50417;SDS011;36346;48.280;14.292;2023-02-28T15:58:00;23.00;;;22.75;;
50417;SDS011;36346;48.280;14.292;2023-02-28T16:00:29;23.91;;;23.45;;
50417;SDS011;36346;48.280;14.292;2023-02-28T16:03:00;23.71;;;23.44;;
50417;SDS011;36346;48.280;14.292;2023-02-28T16:05:29;24.35;;;24.06;;
50417;SDS011;36346;48.280;14.292;2023-02-28T16:08:00;23.93;;;23.82;;
50417;SDS011;36346;48.280;14.292;2023-02-28T16:10:34;23.66;;;23.39;;
50417;SDS011;36346;48.280;14.292;2023-02-28T16:13:02;23.48;;;23.25;;
50417;SDS011;36346;48.280;14.292;2023-02-28T16:15:31;23.76;;;23.31;;
50417;SDS011;36346;48.280;14.292;2023-02-28T16:18:12;23.93;;;23.69;;
50417;SDS011;36346;48.280;14.292;2023-02-28T16:20:40;23.97;;;23.79;;
50417;SDS011;36346;48.280;14.292;2023-02-28T16:23:09;24.70;;;24.61;;
50417;SDS011;36346;48.280;14.292;2023-02-28T16:25:38;24.37;;;24.12;;
50417;SDS011;36346;48.280;14.292;2023-02-28T16:28:12;24.46;;;24.20;;
50417;SDS011;36346;48.280;14.292;2023-02-28T16:30:47;24.88;;;24.74;;
50417;SDS011;36346;48.280;14.292;2023-02-28T16:33:15;24.02;;;23.79;;
50417;SDS011;36346;48.280;14.292;2023-02-28T16:35:42;23.80;;;23.42;;
50417;SDS011;36346;48.280;14.292;2023-02-28T16:38:10;23.66;;;23.37;;
50417;SDS011;36346;48.280;14.292;2023-02-28T16:40:38;26.45;;;25.94;;
50417;SDS011;36346;48.280;14.292;2023-02-28T16:43:07;25.90;;;25.49;;
50417;SDS011;36346;48.280;14.292;2023-02-28T16:45:43;24.13;;;23.88;;
50417;SDS011;36346;48.280;14.292;2023-02-28T16:48:12;23.64;;;23.50;;
50417;SDS011;36346;48.280;14.292;2023-02-28T16:50:42;23.58;;;23.36;;
50417;SDS011;36346;48.280;14.292;2023-02-28T16:53:13;24.37;;;24.00;;
50417;SDS011;36346;48.280;14.292;2023-02-28T16:55:41;24.28;;;23.79;;
50417;SDS011;36346;48.280;14.292;2023-02-28T16:58:13;23.82;;;23.74;;
50417;SDS011;36346;48.280;14.292;2023-02-28T17:00:43;24.06;;;23.99;;
50417;SDS011;36346;48.280;14.292;2023-02-28T17:03:22;27.68;;;27.01;;
50417;SDS011;36346;48.280;14.292;2023-02-28T17:06:00;26.23;;;25.98;;
50417;SDS011;36346;48.280;14.292;2023-02-28T17:08:28;26.00;;;25.79;;
50417;SDS011;36346;48.280;14.292;2023-02-28T17:10:58;27.67;;;27.17;;
50417;SDS011;36346;48.280;14.292;2023-02-28T17:13:26;28.01;;;27.76;;
50417;SDS011;36346;48.280;14.292;2023-02-28T17:15:54;26.04;;;25.66;;
50417;SDS011;36346;48.280;14.292;2023-02-28T17:18:22;27.15;;;26.71;;
50417;SDS011;36346;48.280;14.292;2023-02-28T17:20:50;26.55;;;26.08;;